• Join FlightAware (Why Join?)
  • Login
  • US Flag 
05:48PM EST


 

Airport Tracker/Info


-or-


 

Live Flight TrackerFlight Track Log ✈ SKW4764 ✈ 19-Aug-2014 ✈ KSLC - KMSO

Flight Track Log - Related Links

Times and Time Zones

All times are in EDT time to prevent confusion due to time zone crossing. See the SKW4764 flight status page for this flight to view local times or setup timezone preferences in your user account.

Time Position Orientation Groundspeed Altitude Reporting Facility
EDT Latitude Longitude Course Direction KTS MPH feet Rate Location/Type
05:34PM 40.7711 -111.9744 50° Northeast 173 199 4,900  Level Salt Lake Center
05:35PM 40.7525 -112.0544 253° West 247 284 6,900 1,980 Climbing Salt Lake Center
05:36PM 40.7808 -112.0992 310° West 263 303 8,600 2,880 Climbing Salt Lake Center
05:36PM 40.7972 -112.1186 318° Northwest 278 320 9,500 2,460 Climbing Salt Lake Center
05:37PM 41.0272 -112.0895 37° Northeast  Level FlightAware Approximate
05:37PM 40.8353 -112.1675 316° Northwest 267 307 11,200  Level Salt Lake Center
05:37PM 40.8572 -112.1944 317° Northwest 277 319 12,200 2,280 Climbing Salt Lake Center
05:38PM 41.1096 -111.9754 50° Northeast  Level FlightAware Approximate
05:38PM 40.8981 -112.2269 329° Northwest 290 334 13,600  Level Salt Lake Center
05:38PM 40.9292 -112.2214 North 291 335 14,700 2,280 Climbing Salt Lake Center
05:39PM 41.1922 -111.8456 50° Northeast  Level FlightAware Approximate
05:39PM 40.9667 -112.1800 40° Northeast 287 330 16,000  Level Salt Lake Center
05:39PM 40.9889 -112.1531 42° Northeast 298 343 16,700 1,140 Climbing Salt Lake Center
05:40PM 41.0289 -112.0956 47° Northeast 328 377 17,200 1,380 Climbing Salt Lake Center
05:41PM 41.0956 -112.0017 47° Northeast 345 397 19,100 1,800 Climbing Salt Lake Center
05:42PM 41.1639 -111.9017 48° Northeast 356 410 21,000 1,500 Climbing Salt Lake Center
05:43PM 41.2447 -111.8131 39° Northeast 376 433 22,300 960 Climbing Salt Lake Center
05:44PM 41.3397 -111.7439 29° Northeast 385 443 23,000 300 Climbing Salt Lake Center
05:45PM 41.4556 -111.6417 33° Northeast 430 495 23,000  Level Salt Lake Center
05:46PM 41.5292 -111.5244 50° Northeast 413 475 23,000  Level Salt Lake Center
05:47PM 41.6031 -111.4064 50° Northeast 413 475 23,000  Level Salt Lake Center
05:48PM 41.6947 -111.3225 34° Northeast 417 480 23,000  Level Salt Lake Center
05:49PM 41.8042 -111.3156 North 400 460 23,000  Level Salt Lake Center
05:50PM 41.9103 -111.3294 354° North 398 458 23,000 660 Level Salt Lake Center
05:51PM 42.0281 -111.3911 339° North 379 436 24,400 1,440 Climbing Salt Lake Center
05:52PM 42.1258 -111.4400 340° North 380 437 26,000 720 Climbing Salt Lake Center
05:53PM 42.2283 -111.4931 339° North 389 448 26,000  Level Salt Lake Center
05:54PM 42.3342 -111.5475 339° North 403 464 26,000  Level Salt Lake Center
05:55PM 42.4417 -111.6022 339° North 409 471 26,000  Level Salt Lake Center
05:56PM 42.5472 -111.6567 339° North 410 472 26,000  Level Salt Lake Center
05:57PM 42.6650 -111.7167 339° North 384 442 26,000  Level Salt Lake Center
05:58PM 42.7633 -111.7661 340° North 380 437 26,000  Level Salt Lake Center
06:00PM 42.8608 -111.8186 338° Northwest 380 437 26,000  Level Salt Lake Center
06:01PM 42.9600 -111.8683 340° North 379 436 26,000  Level Salt Lake Center
06:02PM 43.0581 -111.9206 339° North 379 436 26,000  Level Salt Lake Center
06:03PM 43.1542 -111.9717 339° North 377 434 26,000  Level Salt Lake Center
06:04PM 43.2708 -112.0322 339° North 376 433 26,000  Level Salt Lake Center
06:05PM 43.3675 -112.0822 339° North 375 432 26,000  Level Salt Lake Center
06:06PM 43.4656 -112.1364 338° Northwest 376 433 26,000  Level Salt Lake Center
06:07PM 43.5675 -112.1756 344° North 377 434 26,000  Level Salt Lake Center
06:08PM 43.6742 -112.1975 352° North 384 442 26,000  Level Salt Lake Center
06:09PM 43.7794 -112.2250 349° North 386 444 26,000  Level Salt Lake Center
06:10PM 43.9019 -112.2581 349° North 380 437 26,000  Level Salt Lake Center
06:11PM 43.9911 -112.2794 350° North 379 436 26,000  Level Salt Lake Center
06:12PM 44.1122 -112.3119 349° North 382 440 26,000  Level Salt Lake Center
06:13PM 44.2203 -112.3472 347° North 390 449 26,000  Level Salt Lake Center
06:14PM 44.3364 -112.3775 349° North 399 459 26,000  Level Salt Lake Center
06:15PM 44.4558 -112.4089 349° North 410 472 26,000  Level Salt Lake Center
06:16PM 44.5722 -112.4242 355° North 415 478 26,000  Level Salt Lake Center
06:17PM 44.7028 -112.3997 North 430 495 26,000  Level Salt Lake Center
06:18PM 44.8147 -112.4544 341° North 430 495 26,000  Level Salt Lake Center
06:19PM 44.9222 -112.5319 333° Northwest 429 494 26,000  Level Salt Lake Center
06:20PM 45.0303 -112.6086 333° Northwest 428 493 26,000  Level Salt Lake Center
06:21PM 45.1225 -112.7075 323° Northwest 411 473 26,000  Level Salt Lake Center
06:22PM 45.2114 -112.8086 321° Northwest 407 468 26,000  Level Salt Lake Center
06:23PM 45.3250 -112.8539 344° North 413 475 26,000  Level Salt Lake Center
06:24PM 45.4447 -112.8792 352° North 421 484 26,000  Level Salt Lake Center
06:25PM 45.5583 -112.9206 346° North 418 481 26,000  Level Salt Lake Center
06:26PM 45.6586 -112.9956 332° Northwest 405 466 26,000  Level Salt Lake Center
06:27PM 45.7572 -113.0814 329° Northwest 405 466 26,000  Level Salt Lake Center
06:28PM 45.8575 -113.1628 331° Northwest 403 464 26,000 -660 Level Salt Lake Center
06:29PM 45.9586 -113.2439 331° Northwest 409 471 24,700 -1,800 Descending Salt Lake Center
06:30PM 46.0675 -113.3167 335° Northwest 396 456 22,400 -2,280 Descending Salt Lake Center
06:31PM 46.1608 -113.3781 336° Northwest 366 421 20,000 -2,760 Descending Salt Lake Center
06:32PM 46.2436 -113.4608 325° Northwest 365 420 16,800 -2,400 Descending Salt Lake Center
06:33PM 46.3147 -113.5572 317° Northwest 351 404 15,200 -840 Descending Salt Lake Center
06:35PM 46.3856 -113.6431 320° Northwest 311 358 15,100 -540 Descending Salt Lake Center
06:36PM 46.4369 -113.7114 318° Northwest 256 295 14,200 -1,740 Descending Salt Lake Center
06:37PM 46.4894 -113.7856 316° Northwest 260 299 11,600 -2,280 Descending Salt Lake Center
06:38PM 46.5586 -113.8281 337° Northwest 255 293 9,600 -1,200 Descending Salt Lake Center
06:39PM 46.6067 -113.9017 314° West 251 289 9,200 -360 Descending Salt Lake Center
06:40PM 46.6658 -113.9681 322° Northwest 251 289 8,900 -840 Descending Salt Lake Center
06:41PM 46.7228 -114.0136 331° Northwest 240 276 7,500 -1,380 Descending Salt Lake Center
06:42PM 46.7794 -114.0392 343° North 219 252 6,100 -1,200 Descending Salt Lake Center
06:43PM 46.8375 -114.0197 13° North 201 231 5,100 -1,020 Descending Salt Lake Center
06:44PM 46.8814 -114.0308 350° North 164 189 4,000 -960 Descending Salt Lake Center
06:45PM 46.9086 -114.0792 310° West 143 165 3,200 -840 Descending Salt Lake Center